createdAt,value
2023-04-30T00:01:47.931Z,88.33
2023-04-30T00:04:17.194Z,87.32
2023-04-30T00:06:45.037Z,86.37
2023-04-30T00:09:12.848Z,86.84
2023-04-30T00:11:40.625Z,86.37
2023-04-30T00:14:08.422Z,84.99
2023-04-30T00:16:36.297Z,83.48
2023-04-30T00:19:04.141Z,82.05
2023-04-30T00:21:33.597Z,82.19
2023-04-30T00:24:01.609Z,83.26
2023-04-30T00:26:29.487Z,83.32
2023-04-30T00:28:57.245Z,82.59
2023-04-30T00:31:25.081Z,82.63
2023-04-30T00:33:52.885Z,82.96
2023-04-30T00:36:20.642Z,82.14
2023-04-30T00:38:49.760Z,84.66
2023-04-30T00:41:17.625Z,86.92
2023-04-30T00:43:46.896Z,87.77
2023-04-30T00:46:14.741Z,85.89
2023-04-30T00:48:42.530Z,88.29
2023-04-30T00:51:10.290Z,90.25
2023-04-30T00:53:39.338Z,91.03
2023-04-30T00:56:10.435Z,92.28
2023-04-30T00:58:38.195Z,93.59
2023-04-30T01:01:07.212Z,93.74
2023-04-30T01:03:36.105Z,94.07
2023-04-30T01:06:04.574Z,94.29
2023-04-30T01:08:33.359Z,94.89
2023-04-30T01:11:21.588Z,94.33
2023-04-30T01:13:56.702Z,95.69
2023-04-30T01:16:28.186Z,96.61
2023-04-30T01:19:00.174Z,96.63
2023-04-30T01:21:30.785Z,98.12
2023-04-30T01:24:30.516Z,96.11
2023-04-30T01:27:16.989Z,93.96
2023-04-30T01:29:46.118Z,94.12
2023-04-30T01:32:13.898Z,94.34
2023-04-30T01:34:41.759Z,94.19
2023-04-30T01:37:22.823Z,95.32
2023-04-30T01:40:03.949Z,95.30
2023-04-30T01:42:37.963Z,94.93
2023-04-30T01:45:29.764Z,95.75
2023-04-30T01:48:04.246Z,95.49
2023-04-30T01:50:39.583Z,96.09
2023-04-30T01:53:10.615Z,96.30
2023-04-30T01:55:43.901Z,95.67
2023-04-30T01:58:14.480Z,96.25
2023-04-30T02:00:43.783Z,96.60
2023-04-30T02:03:11.554Z,97.07
2023-04-30T02:05:39.421Z,97.10
2023-04-30T02:08:08.018Z,98.06
2023-04-30T02:10:35.831Z,97.18
2023-04-30T02:13:03.626Z,97.97
2023-04-30T02:15:31.485Z,98.68
2023-04-30T02:18:00.688Z,97.96
2023-04-30T02:20:28.546Z,97.43
2023-04-30T02:22:56.302Z,96.65
2023-04-30T02:25:24.030Z,96.80
2023-04-30T02:27:51.836Z,97.57
2023-04-30T02:30:20.962Z,98.41
2023-04-30T02:32:49.017Z,99.03
2023-04-30T02:35:18.282Z,99.13
2023-04-30T02:37:46.011Z,99.90
2023-04-30T02:40:13.988Z,99.50
2023-04-30T02:42:41.771Z,98.27
2023-04-30T02:45:10.233Z,97.18
2023-04-30T02:47:38.005Z,98.52
2023-04-30T02:50:06.687Z,99.07
2023-04-30T02:52:35.824Z,100.00
2023-04-30T02:55:04.230Z,100.00
2023-04-30T02:57:32.126Z,100.00
2023-04-30T02:59:59.876Z,100.00
2023-04-30T03:02:27.655Z,100.00
2023-04-30T03:04:55.459Z,100.00
2023-04-30T03:07:23.347Z,100.00
2023-04-30T03:09:52.679Z,100.00
2023-04-30T03:12:20.527Z,100.00
2023-04-30T03:14:48.252Z,100.00
2023-04-30T03:17:16.642Z,100.00
2023-04-30T03:19:44.431Z,100.00
2023-04-30T03:22:12.484Z,100.00
2023-04-30T03:24:40.219Z,100.00
2023-04-30T03:27:09.419Z,100.00
2023-04-30T03:29:37.188Z,100.00
2023-04-30T03:32:05.367Z,100.00
2023-04-30T03:34:33.194Z,100.00
2023-04-30T03:37:01.857Z,100.00
2023-04-30T03:39:29.638Z,100.00
2023-04-30T03:41:57.414Z,100.00
2023-04-30T03:44:26.486Z,100.00
2023-04-30T03:46:54.212Z,100.00
2023-04-30T03:49:21.986Z,100.00
2023-04-30T03:51:49.709Z,100.00
2023-04-30T03:54:17.431Z,100.00
2023-04-30T03:56:45.427Z,100.00
2023-04-30T03:59:13.260Z,100.00
2023-04-30T04:01:42.466Z,100.00
2023-04-30T04:04:10.790Z,100.00
2023-04-30T04:06:38.615Z,100.00
2023-04-30T04:09:06.609Z,100.00
2023-04-30T04:11:34.458Z,100.00
2023-04-30T04:14:02.198Z,100.00
2023-04-30T04:16:30.201Z,100.00
2023-04-30T04:18:59.355Z,100.00
2023-04-30T04:21:27.079Z,100.00
2023-04-30T04:23:54.844Z,100.00
2023-04-30T04:26:25.586Z,100.00
2023-04-30T04:28:53.400Z,100.00
2023-04-30T04:31:22.690Z,100.00
2023-04-30T04:33:50.594Z,100.00
2023-04-30T04:36:19.654Z,100.00
2023-04-30T04:38:47.913Z,100.00
2023-04-30T04:41:15.729Z,100.00
2023-04-30T04:43:43.773Z,100.00
2023-04-30T04:46:13.725Z,100.00
2023-04-30T04:48:42.190Z,100.00
2023-04-30T04:51:11.156Z,100.00
2023-04-30T04:53:40.258Z,100.00
2023-04-30T04:56:08.997Z,100.00
2023-04-30T04:58:36.816Z,100.00
2023-04-30T05:01:05.112Z,100.00
2023-04-30T05:03:33.205Z,100.00
2023-04-30T05:06:01.098Z,100.00
2023-04-30T05:08:28.844Z,100.00
2023-04-30T05:10:57.980Z,100.00
2023-04-30T05:13:26.394Z,100.00
2023-04-30T05:15:55.537Z,100.00
2023-04-30T05:18:23.437Z,100.00
2023-04-30T05:20:51.181Z,100.00
2023-04-30T05:23:19.045Z,100.00
2023-04-30T05:25:46.991Z,100.00
2023-04-30T05:28:16.048Z,100.00
2023-04-30T05:30:43.790Z,100.00
2023-04-30T05:35:39.349Z,100.00
2023-04-30T05:38:07.098Z,100.00
2023-04-30T05:40:34.893Z,100.00
2023-04-30T05:43:02.662Z,100.00
2023-04-30T05:45:31.798Z,100.00
2023-04-30T05:47:59.668Z,100.00
2023-04-30T05:50:27.450Z,100.00
2023-04-30T05:52:55.185Z,100.00
2023-04-30T05:55:23.006Z,100.00
2023-04-30T05:57:50.796Z,100.00
2023-04-30T06:00:18.799Z,100.00
2023-04-30T06:02:48.164Z,100.00
2023-04-30T06:05:16.414Z,100.00
2023-04-30T06:07:44.291Z,100.00
2023-04-30T06:10:12.584Z,100.00
2023-04-30T06:12:40.508Z,100.00
2023-04-30T06:15:09.023Z,100.00
2023-04-30T06:17:37.031Z,100.00
2023-04-30T06:20:07.406Z,100.00
2023-04-30T06:22:35.314Z,100.00
2023-04-30T06:25:03.497Z,100.00
2023-04-30T06:27:32.477Z,100.00
2023-04-30T06:30:01.171Z,100.00
2023-04-30T06:32:29.139Z,100.00
2023-04-30T06:34:59.530Z,100.00
2023-04-30T06:37:28.631Z,100.00
2023-04-30T06:39:56.677Z,100.00
2023-04-30T06:42:24.677Z,100.00
2023-04-30T06:44:52.555Z,100.00
2023-04-30T06:47:20.355Z,100.00
2023-04-30T06:49:48.073Z,99.55
2023-04-30T06:52:15.824Z,99.23
2023-04-30T06:54:45.231Z,98.12
2023-04-30T06:57:13.354Z,98.98
2023-04-30T06:59:41.238Z,97.02
2023-04-30T07:02:09.091Z,97.39
2023-04-30T07:04:36.915Z,96.81
2023-04-30T07:07:05.103Z,97.07
2023-04-30T07:09:32.990Z,95.56
2023-04-30T07:12:02.095Z,93.70
2023-04-30T07:14:29.822Z,90.76
2023-04-30T07:16:58.127Z,89.86
2023-04-30T07:19:26.989Z,87.56
2023-04-30T07:21:54.753Z,85.38
2023-04-30T07:24:22.652Z,85.93
2023-04-30T07:26:50.434Z,81.55
2023-04-30T07:29:19.532Z,82.59
2023-04-30T07:31:47.795Z,80.67
2023-04-30T07:34:15.550Z,80.05
2023-04-30T07:36:43.613Z,76.86
2023-04-30T07:39:11.833Z,76.22
2023-04-30T07:41:39.613Z,76.66
2023-04-30T07:44:07.499Z,77.04
2023-04-30T07:46:37.000Z,77.19
2023-04-30T07:49:05.089Z,78.50
2023-04-30T07:51:34.015Z,78.79
2023-04-30T07:54:01.914Z,77.88
2023-04-30T07:56:29.774Z,76.92
2023-04-30T07:58:57.620Z,77.95
2023-04-30T08:01:25.462Z,76.76
2023-04-30T08:03:54.618Z,77.03
2023-04-30T08:06:22.785Z,73.21
2023-04-30T08:08:50.755Z,72.42
2023-04-30T08:11:18.488Z,74.33
2023-04-30T08:13:47.639Z,75.39
2023-04-30T08:16:16.118Z,73.79
2023-04-30T08:18:46.294Z,75.20
2023-04-30T08:21:15.474Z,74.56
2023-04-30T08:23:43.260Z,73.56
2023-04-30T08:26:11.100Z,75.27
2023-04-30T08:28:38.850Z,73.21
2023-04-30T08:31:06.722Z,71.66
2023-04-30T08:33:34.464Z,73.11
2023-04-30T08:36:02.196Z,73.19
2023-04-30T08:38:31.347Z,72.20
2023-04-30T08:41:08.293Z,73.33
2023-04-30T08:43:36.539Z,74.34
2023-04-30T08:46:05.172Z,73.72
2023-04-30T08:48:33.225Z,70.06
2023-04-30T08:51:02.180Z,71.02
2023-04-30T08:53:33.921Z,71.38
2023-04-30T08:56:01.780Z,71.66
2023-04-30T08:58:29.498Z,69.63
2023-04-30T09:00:59.100Z,71.19
2023-04-30T09:03:28.376Z,71.04
2023-04-30T09:05:57.129Z,71.60
2023-04-30T09:08:44.896Z,68.60
2023-04-30T09:11:23.985Z,66.52
2023-04-30T09:13:53.626Z,66.37
2023-04-30T09:16:21.816Z,67.57
2023-04-30T09:18:50.190Z,70.01
2023-04-30T09:21:18.400Z,70.06
2023-04-30T09:23:58.212Z,68.18
2023-04-30T09:26:41.733Z,69.64
2023-04-30T09:29:10.333Z,66.75
2023-04-30T09:31:39.640Z,68.39
2023-04-30T09:34:07.505Z,67.90
2023-04-30T09:36:35.839Z,66.26
2023-04-30T09:39:14.785Z,69.26
2023-04-30T09:41:43.432Z,70.36
2023-04-30T09:44:28.359Z,69.13
2023-04-30T09:46:58.686Z,69.42
2023-04-30T09:49:27.416Z,68.50
2023-04-30T09:51:56.741Z,68.84
2023-04-30T09:54:27.802Z,68.45
2023-04-30T09:56:56.514Z,68.29
2023-04-30T09:59:30.692Z,69.80
2023-04-30T10:02:00.936Z,69.24
2023-04-30T10:04:32.023Z,67.86
2023-04-30T10:07:01.330Z,67.07
2023-04-30T10:09:37.620Z,67.31
2023-04-30T10:12:08.371Z,66.83
2023-04-30T10:14:36.751Z,67.16
2023-04-30T10:17:09.753Z,66.56
2023-04-30T10:19:41.632Z,65.09
2023-04-30T10:22:10.636Z,66.50
2023-04-30T10:24:40.162Z,66.07
2023-04-30T10:27:07.948Z,64.04
2023-04-30T10:29:35.687Z,64.19
2023-04-30T10:32:05.251Z,64.62
2023-04-30T10:34:45.453Z,63.73
2023-04-30T10:37:22.174Z,64.35
2023-04-30T10:39:52.175Z,64.14
2023-04-30T10:42:20.400Z,63.92
2023-04-30T10:44:48.754Z,63.19
2023-04-30T10:47:19.275Z,63.38
2023-04-30T10:49:49.055Z,64.49
2023-04-30T10:52:27.915Z,62.75
2023-04-30T10:54:57.103Z,64.09
2023-04-30T10:57:25.161Z,63.29
2023-04-30T10:59:55.316Z,62.70
2023-04-30T11:02:23.361Z,61.47
2023-04-30T11:05:10.018Z,57.52
2023-04-30T11:07:38.322Z,55.87
2023-04-30T11:10:09.485Z,55.42
2023-04-30T11:12:42.507Z,58.33
2023-04-30T11:15:16.427Z,57.59
2023-04-30T11:17:47.513Z,56.40
2023-04-30T11:20:19.857Z,55.31
2023-04-30T11:22:47.828Z,57.25
2023-04-30T11:25:20.682Z,55.84
2023-04-30T11:27:48.568Z,57.78
2023-04-30T11:30:18.554Z,57.27
2023-04-30T11:32:48.264Z,57.60
2023-04-30T11:35:19.681Z,58.69
2023-04-30T11:37:49.161Z,57.32
2023-04-30T11:40:18.374Z,58.26
2023-04-30T11:42:52.205Z,56.76
2023-04-30T11:45:20.886Z,58.48
2023-04-30T11:47:50.502Z,55.83
2023-04-30T11:50:21.281Z,56.15
2023-04-30T11:52:53.798Z,56.27
2023-04-30T11:55:24.221Z,56.45
2023-04-30T11:57:55.636Z,56.19
2023-04-30T12:00:27.781Z,56.25
2023-04-30T12:02:56.336Z,56.97
2023-04-30T12:05:26.602Z,55.69
2023-04-30T12:07:56.991Z,57.84
2023-04-30T12:10:26.979Z,57.15
2023-04-30T12:12:55.357Z,56.33
2023-04-30T12:15:27.128Z,55.69
2023-04-30T12:17:58.618Z,56.09
2023-04-30T12:20:28.407Z,55.07
2023-04-30T12:22:56.480Z,57.18
2023-04-30T12:25:26.587Z,55.81
2023-04-30T12:27:58.355Z,57.08
2023-04-30T12:30:29.646Z,56.52
2023-04-30T12:33:01.002Z,55.53
2023-04-30T12:35:31.153Z,55.94
2023-04-30T12:38:06.625Z,56.93
2023-04-30T12:40:34.857Z,56.05
2023-04-30T12:43:06.016Z,56.13
2023-04-30T12:45:52.845Z,57.11
2023-04-30T12:48:22.137Z,58.91
2023-04-30T12:50:53.834Z,56.29
2023-04-30T12:53:21.896Z,54.78
2023-04-30T12:56:09.524Z,56.83
2023-04-30T12:58:39.880Z,55.27
2023-04-30T13:01:12.826Z,55.05
2023-04-30T13:03:41.261Z,54.56
2023-04-30T13:06:10.535Z,56.18
2023-04-30T13:08:49.868Z,56.34
2023-04-30T13:11:26.135Z,55.31
2023-04-30T13:13:56.578Z,55.47
2023-04-30T13:16:25.957Z,56.23
2023-04-30T13:18:53.912Z,55.70
2023-04-30T13:21:21.803Z,55.66
2023-04-30T13:23:53.520Z,54.89
2023-04-30T13:26:23.171Z,55.38
2023-04-30T13:28:51.522Z,55.26
2023-04-30T13:31:20.817Z,55.37
2023-04-30T13:33:49.025Z,57.24
2023-04-30T13:36:16.879Z,54.63
2023-04-30T13:38:44.645Z,54.14
2023-04-30T13:41:12.424Z,55.58
2023-04-30T13:43:42.627Z,56.72
2023-04-30T13:46:10.798Z,52.12
2023-04-30T13:48:40.010Z,53.60
2023-04-30T13:51:08.382Z,53.64
2023-04-30T13:53:37.051Z,54.32
2023-04-30T13:56:08.186Z,52.48
2023-04-30T13:58:36.002Z,54.27
2023-04-30T14:01:03.936Z,55.22
2023-04-30T14:03:31.913Z,54.34
2023-04-30T14:06:01.399Z,53.92
2023-04-30T14:08:30.770Z,54.25
2023-04-30T14:10:58.635Z,53.58
2023-04-30T14:13:26.602Z,57.00
2023-04-30T14:15:54.700Z,52.95
2023-04-30T14:18:22.924Z,53.66
2023-04-30T14:20:51.036Z,52.70
2023-04-30T14:23:20.243Z,52.65
2023-04-30T14:25:48.324Z,53.70
2023-04-30T14:28:16.773Z,52.76
2023-04-30T14:30:44.596Z,53.01
2023-04-30T14:33:12.976Z,55.37
2023-04-30T14:35:41.557Z,54.94
2023-04-30T14:38:12.142Z,54.20
2023-04-30T14:40:41.242Z,52.65
2023-04-30T14:43:09.038Z,52.43
2023-04-30T14:45:38.166Z,54.34
2023-04-30T14:48:06.469Z,53.79
2023-04-30T14:50:34.288Z,55.45
2023-04-30T14:53:02.053Z,56.28
2023-04-30T14:55:29.837Z,55.70
2023-04-30T14:58:01.496Z,57.19
2023-04-30T15:00:29.421Z,54.88
2023-04-30T15:02:57.330Z,55.15
2023-04-30T15:05:25.960Z,54.47
2023-04-30T15:07:54.006Z,54.30
2023-04-30T15:10:22.011Z,55.31
2023-04-30T15:12:49.807Z,55.29
2023-04-30T15:15:19.541Z,55.28
2023-04-30T15:17:47.318Z,54.56
2023-04-30T15:20:15.258Z,54.30
2023-04-30T15:22:42.994Z,54.59
2023-04-30T15:25:10.870Z,54.84
2023-04-30T15:27:39.127Z,56.21
2023-04-30T15:30:08.579Z,57.40
2023-04-30T15:32:37.747Z,57.00
2023-04-30T15:35:06.805Z,57.38
2023-04-30T15:37:35.074Z,56.48
2023-04-30T15:40:02.920Z,56.56
2023-04-30T15:42:30.690Z,57.58
2023-04-30T15:44:58.461Z,55.64
2023-04-30T15:47:26.592Z,56.64
2023-04-30T15:49:56.169Z,55.69
2023-04-30T15:52:24.462Z,57.14
2023-04-30T15:54:52.195Z,57.21
2023-04-30T15:57:20.291Z,57.72
2023-04-30T15:59:48.020Z,56.19
2023-04-30T16:02:15.777Z,56.52
2023-04-30T16:04:44.523Z,56.33
2023-04-30T16:07:14.051Z,56.48
2023-04-30T16:09:45.656Z,55.93
2023-04-30T16:12:13.519Z,55.83
2023-04-30T16:14:41.264Z,56.18
2023-04-30T16:17:09.222Z,55.90
2023-04-30T16:19:37.007Z,54.87
2023-04-30T16:22:04.960Z,55.15
2023-04-30T16:24:34.451Z,55.29
2023-04-30T16:27:02.271Z,55.49
2023-04-30T16:29:30.045Z,55.57
2023-04-30T16:31:58.728Z,55.07
2023-04-30T16:34:27.445Z,54.64
2023-04-30T16:36:55.192Z,55.05
2023-04-30T16:39:22.934Z,55.29
2023-04-30T16:41:52.063Z,55.66
2023-04-30T16:44:19.883Z,54.91
2023-04-30T16:46:48.207Z,54.95
2023-04-30T16:49:16.256Z,55.40
2023-04-30T16:51:44.033Z,55.28
2023-04-30T16:54:11.783Z,55.71
2023-04-30T16:56:39.731Z,55.58
2023-04-30T16:59:08.867Z,56.19
2023-04-30T17:01:36.731Z,56.42
2023-04-30T17:04:04.580Z,55.31
2023-04-30T17:06:33.442Z,54.86
2023-04-30T17:09:01.280Z,55.29
2023-04-30T17:11:29.113Z,55.91
2023-04-30T17:13:56.936Z,55.46
2023-04-30T17:16:26.154Z,55.82
2023-04-30T17:18:53.998Z,54.92
2023-04-30T17:21:21.772Z,55.33
2023-04-30T17:23:49.527Z,55.57
2023-04-30T17:26:18.229Z,55.97
2023-04-30T17:28:46.009Z,56.66
2023-04-30T17:31:13.992Z,57.31
2023-04-30T17:33:44.130Z,57.47
2023-04-30T17:36:13.747Z,57.89
2023-04-30T17:38:41.476Z,58.45
2023-04-30T17:41:09.381Z,59.36
2023-04-30T17:43:37.146Z,60.37
2023-04-30T17:46:05.053Z,61.05
2023-04-30T17:48:32.916Z,61.76
2023-04-30T17:51:02.558Z,62.09
2023-04-30T17:53:30.453Z,62.62
2023-04-30T17:55:59.331Z,63.63
2023-04-30T17:58:27.831Z,64.79
2023-04-30T18:00:56.499Z,65.17
2023-04-30T18:03:24.304Z,66.13
2023-04-30T18:05:52.151Z,67.58
2023-04-30T18:08:21.254Z,68.72
2023-04-30T18:10:49.741Z,70.49
2023-04-30T18:13:17.523Z,72.66
2023-04-30T18:15:45.252Z,74.03
2023-04-30T18:18:13.052Z,76.04
2023-04-30T18:20:40.890Z,77.78
2023-04-30T18:23:09.957Z,77.56
2023-04-30T18:25:40.255Z,78.53
2023-04-30T18:28:08.723Z,82.13
2023-04-30T18:30:37.002Z,84.48
2023-04-30T18:33:05.218Z,86.27
2023-04-30T18:35:34.017Z,87.58
2023-04-30T18:38:02.723Z,87.31
2023-04-30T18:40:31.025Z,86.96
2023-04-30T18:43:00.099Z,87.61
2023-04-30T18:45:27.953Z,88.74
2023-04-30T18:47:55.922Z,89.69
2023-04-30T18:50:23.744Z,92.22
2023-04-30T18:52:51.527Z,94.14
2023-04-30T18:55:19.563Z,95.31
2023-04-30T18:57:47.320Z,96.31
2023-04-30T19:00:16.751Z,97.20
2023-04-30T19:02:44.652Z,98.35
2023-04-30T19:05:12.463Z,99.06
2023-04-30T19:07:40.931Z,100.00
2023-04-30T19:10:09.367Z,100.00
2023-04-30T19:12:37.281Z,99.98
2023-04-30T19:15:07.932Z,100.00
2023-04-30T19:17:37.088Z,100.00
2023-04-30T19:20:05.461Z,100.00
2023-04-30T19:22:33.247Z,100.00
2023-04-30T19:25:01.024Z,100.00
2023-04-30T19:27:28.768Z,100.00
2023-04-30T19:29:57.757Z,100.00
2023-04-30T19:32:26.161Z,100.00
2023-04-30T19:34:55.359Z,100.00
2023-04-30T19:37:25.070Z,100.00
2023-04-30T19:39:53.030Z,100.00
2023-04-30T19:42:20.917Z,100.00
2023-04-30T19:44:48.674Z,100.00
2023-04-30T19:47:16.515Z,100.00
2023-04-30T19:49:44.620Z,100.00
2023-04-30T19:52:14.405Z,100.00
2023-04-30T19:54:48.378Z,100.00
2023-04-30T19:57:16.221Z,100.00
2023-04-30T19:59:44.135Z,100.00
2023-04-30T20:02:12.088Z,100.00
2023-04-30T20:04:39.907Z,100.00
2023-04-30T20:07:07.808Z,100.00
2023-04-30T20:09:37.386Z,100.00
2023-04-30T20:12:05.564Z,100.00
2023-04-30T20:14:33.363Z,100.00
2023-04-30T20:17:01.105Z,100.00
2023-04-30T20:19:28.974Z,100.00
2023-04-30T20:21:56.924Z,100.00
2023-04-30T20:24:24.745Z,100.00
2023-04-30T20:26:53.835Z,100.00
2023-04-30T20:29:23.148Z,100.00
2023-04-30T20:31:51.806Z,100.00
2023-04-30T20:34:19.633Z,100.00
2023-04-30T20:36:47.461Z,100.00
2023-04-30T20:39:15.765Z,100.00
2023-04-30T20:41:43.801Z,100.00
2023-04-30T20:44:12.961Z,100.00
2023-04-30T20:46:40.810Z,100.00
2023-04-30T20:49:11.053Z,100.00
2023-04-30T20:51:40.243Z,100.00
2023-04-30T20:54:08.736Z,100.00
2023-04-30T20:56:36.774Z,100.00
2023-04-30T20:59:05.921Z,100.00
2023-04-30T21:01:35.120Z,100.00
2023-04-30T21:04:02.938Z,100.00
2023-04-30T21:06:31.932Z,100.00
2023-04-30T21:09:00.024Z,100.00
2023-04-30T21:11:28.800Z,100.00
2023-04-30T21:13:57.130Z,100.00
2023-04-30T21:16:25.263Z,100.00
2023-04-30T21:18:54.430Z,100.00
2023-04-30T21:21:22.225Z,100.00
2023-04-30T21:23:50.142Z,100.00
2023-04-30T21:26:17.971Z,100.00
2023-04-30T21:28:45.947Z,100.00
2023-04-30T21:31:13.870Z,100.00
2023-04-30T21:33:41.812Z,100.00
2023-04-30T21:36:11.029Z,100.00
2023-04-30T21:38:38.916Z,100.00
2023-04-30T21:41:07.007Z,100.00
2023-04-30T21:43:35.083Z,100.00
2023-04-30T21:46:03.295Z,100.00
2023-04-30T21:48:31.148Z,100.00
2023-04-30T21:50:58.944Z,100.00
2023-04-30T21:53:28.231Z,100.00
2023-04-30T21:55:57.229Z,100.00
2023-04-30T21:58:25.091Z,100.00
2023-04-30T22:00:55.105Z,100.00
2023-04-30T22:03:22.975Z,100.00
2023-04-30T22:05:50.889Z,100.00
2023-04-30T22:08:18.830Z,100.00
2023-04-30T22:10:48.021Z,100.00
2023-04-30T22:13:16.078Z,100.00
2023-04-30T22:15:48.055Z,100.00
2023-04-30T22:18:17.102Z,100.00
2023-04-30T22:20:45.013Z,100.00
2023-04-30T22:23:12.761Z,100.00
2023-04-30T22:25:40.546Z,100.00
2023-04-30T22:28:10.184Z,100.00
2023-04-30T22:30:38.445Z,100.00
2023-04-30T22:33:06.384Z,100.00
2023-04-30T22:35:38.138Z,100.00
2023-04-30T22:38:06.426Z,100.00
2023-04-30T22:40:35.560Z,100.00
2023-04-30T22:43:05.152Z,100.00
2023-04-30T22:45:37.294Z,100.00
2023-04-30T22:48:05.543Z,100.00
2023-04-30T22:50:33.598Z,100.00
2023-04-30T22:53:01.488Z,100.00
2023-04-30T22:55:29.438Z,100.00
2023-04-30T22:57:59.719Z,100.00
2023-04-30T23:00:27.767Z,100.00
2023-04-30T23:02:57.467Z,100.00
2023-04-30T23:05:25.602Z,100.00
2023-04-30T23:07:54.134Z,100.00
2023-04-30T23:10:21.925Z,100.00
2023-04-30T23:12:49.673Z,100.00
2023-04-30T23:15:18.338Z,100.00
2023-04-30T23:17:46.218Z,100.00
2023-04-30T23:20:15.799Z,100.00
2023-04-30T23:22:43.577Z,100.00
2023-04-30T23:25:11.760Z,100.00
2023-04-30T23:27:39.516Z,100.00
2023-04-30T23:30:09.539Z,100.00
2023-04-30T23:32:37.672Z,100.00
2023-04-30T23:35:06.879Z,100.00
2023-04-30T23:37:36.039Z,100.00
2023-04-30T23:40:07.323Z,100.00
2023-04-30T23:42:35.566Z,100.00
2023-04-30T23:45:03.778Z,100.00
2023-04-30T23:47:31.662Z,100.00
2023-04-30T23:49:59.530Z,100.00
2023-04-30T23:52:27.296Z,100.00
2023-04-30T23:54:56.819Z,100.00
2023-04-30T23:57:24.729Z,100.00
2023-04-30T23:59:52.464Z,100.00
